createdAt,value
2019-05-19T00:00:05.625Z,0.00
2019-05-19T00:01:05.584Z,0.00
2019-05-19T00:02:05.583Z,0.00
2019-05-19T00:03:05.595Z,0.00
2019-05-19T00:04:05.614Z,0.00
2019-05-19T00:05:05.548Z,0.00
2019-05-19T00:06:05.551Z,0.00
2019-05-19T00:07:05.532Z,0.00
2019-05-19T00:08:05.546Z,0.00
2019-05-19T00:09:05.507Z,0.00
2019-05-19T00:10:05.532Z,0.00
2019-05-19T00:11:05.494Z,0.00
2019-05-19T00:12:05.461Z,0.00
2019-05-19T00:13:05.531Z,0.00
2019-05-19T00:14:05.487Z,0.00
2019-05-19T00:15:05.436Z,0.00
2019-05-19T00:16:05.410Z,0.00
2019-05-19T00:17:05.438Z,0.00
2019-05-19T00:18:05.407Z,0.00
2019-05-19T00:19:05.425Z,0.00
2019-05-19T00:20:05.378Z,0.00
2019-05-19T00:21:05.394Z,0.00
2019-05-19T00:22:05.344Z,0.00
2019-05-19T00:23:05.330Z,0.00
2019-05-19T00:24:05.350Z,0.00
2019-05-19T00:25:05.314Z,0.00
2019-05-19T00:26:05.310Z,0.00
2019-05-19T00:27:34.033Z,0.00
2019-05-19T00:28:35.061Z,0.00
2019-05-19T00:29:35.000Z,0.00
2019-05-19T00:30:35.020Z,0.00
2019-05-19T00:31:34.995Z,0.00
2019-05-19T00:32:34.986Z,0.00
2019-05-19T00:33:34.989Z,0.00
2019-05-19T00:34:34.956Z,0.00
2019-05-19T00:35:35.034Z,0.00
2019-05-19T00:36:34.958Z,0.00
2019-05-19T00:37:34.968Z,0.00
2019-05-19T00:38:34.950Z,0.00
2019-05-19T00:39:34.918Z,0.00
2019-05-19T00:40:34.913Z,0.00
2019-05-19T00:41:34.884Z,0.00
2019-05-19T00:42:34.872Z,0.00
2019-05-19T00:43:34.889Z,0.00
2019-05-19T00:44:34.884Z,0.00
2019-05-19T00:45:34.842Z,0.00
2019-05-19T00:46:34.843Z,0.00
2019-05-19T00:47:34.842Z,0.00
2019-05-19T00:48:34.795Z,0.00
2019-05-19T00:49:41.286Z,0.00
2019-05-19T00:50:34.786Z,0.00
2019-05-19T00:51:34.792Z,0.00
2019-05-19T00:52:34.765Z,0.00
2019-05-19T00:53:34.769Z,0.00
2019-05-19T00:54:34.743Z,0.00
2019-05-19T00:55:34.742Z,0.00
2019-05-19T00:56:34.729Z,0.00
2019-05-19T00:57:34.719Z,0.00
2019-05-19T00:58:34.693Z,0.00
2019-05-19T00:59:34.711Z,0.00
2019-05-19T01:00:34.666Z,0.00
2019-05-19T01:01:34.668Z,0.00
2019-05-19T01:02:34.651Z,0.00
2019-05-19T01:03:34.635Z,0.00
2019-05-19T01:04:34.641Z,0.00
2019-05-19T01:05:34.615Z,0.00
2019-05-19T01:06:34.593Z,0.00
2019-05-19T01:07:34.604Z,0.00
2019-05-19T01:08:34.571Z,0.00
2019-05-19T01:09:34.602Z,0.00
2019-05-19T01:10:34.560Z,0.00
2019-05-19T01:11:34.546Z,0.00
2019-05-19T01:12:34.555Z,0.00
2019-05-19T01:13:34.523Z,0.00
2019-05-19T01:14:34.538Z,0.00
2019-05-19T01:15:34.520Z,0.00
2019-05-19T01:16:34.535Z,0.00
2019-05-19T01:17:34.474Z,0.00
2019-05-19T01:18:34.490Z,0.00
2019-05-19T01:19:34.473Z,0.00
2019-05-19T01:20:34.445Z,0.00
2019-05-19T01:21:34.452Z,0.00
2019-05-19T01:22:34.440Z,0.00
2019-05-19T01:23:34.418Z,0.00
2019-05-19T01:24:34.417Z,0.00
2019-05-19T01:25:34.409Z,0.00
2019-05-19T01:26:34.425Z,0.00
2019-05-19T01:27:34.410Z,0.00
2019-05-19T01:28:34.355Z,0.00
2019-05-19T01:29:34.349Z,0.00
2019-05-19T01:30:34.340Z,0.00
2019-05-19T01:31:34.342Z,0.00
2019-05-19T01:32:34.334Z,0.00
2019-05-19T01:33:34.345Z,0.00
2019-05-19T01:34:34.307Z,0.00
2019-05-19T01:35:34.294Z,0.00
2019-05-19T01:36:34.284Z,0.00
2019-05-19T01:37:34.309Z,0.00
2019-05-19T01:38:34.263Z,0.00
2019-05-19T01:39:34.263Z,0.00
2019-05-19T01:40:34.246Z,0.00
2019-05-19T01:41:34.470Z,0.00
2019-05-19T01:42:34.248Z,0.00
2019-05-19T01:43:34.185Z,0.00
2019-05-19T01:44:34.182Z,0.00
2019-05-19T01:45:34.179Z,0.00
2019-05-19T01:46:34.175Z,0.00
2019-05-19T01:47:34.140Z,0.00
2019-05-19T01:48:34.143Z,0.00
2019-05-19T01:49:34.151Z,0.00
2019-05-19T01:50:34.119Z,0.00
2019-05-19T01:51:34.133Z,0.00
2019-05-19T01:52:34.094Z,0.00
2019-05-19T01:53:34.098Z,0.00
2019-05-19T01:54:34.794Z,0.00
2019-05-19T01:55:34.080Z,0.00
2019-05-19T01:56:34.047Z,0.00
2019-05-19T01:57:34.053Z,0.00
2019-05-19T01:58:34.023Z,0.00
2019-05-19T01:59:34.011Z,0.00
2019-05-19T02:00:34.014Z,0.00
2019-05-19T02:01:33.988Z,0.00
2019-05-19T02:02:33.970Z,0.00
2019-05-19T02:03:33.957Z,0.00
2019-05-19T02:04:33.959Z,0.00
2019-05-19T02:05:33.960Z,0.00
2019-05-19T02:06:33.975Z,0.00
2019-05-19T02:07:33.964Z,0.00
2019-05-19T02:08:33.910Z,0.00
2019-05-19T02:09:33.907Z,0.00
2019-05-19T02:10:33.899Z,0.00
2019-05-19T02:11:33.897Z,0.00
2019-05-19T02:12:33.874Z,0.00
2019-05-19T02:13:33.869Z,0.00
2019-05-19T02:14:33.835Z,0.00
2019-05-19T02:15:33.846Z,0.00
2019-05-19T02:16:33.825Z,0.00
2019-05-19T02:17:33.840Z,0.00
2019-05-19T02:18:33.846Z,0.00
2019-05-19T02:19:33.786Z,0.00
2019-05-19T02:20:34.154Z,0.00
2019-05-19T02:21:33.760Z,0.00
2019-05-19T02:22:33.758Z,0.00
2019-05-19T02:23:33.743Z,0.00
2019-05-19T02:24:33.725Z,0.00
2019-05-19T02:25:33.763Z,0.00
2019-05-19T02:26:33.710Z,0.00
2019-05-19T02:37:57.050Z,0.00
2019-05-19T02:38:57.929Z,0.00
2019-05-19T02:39:57.919Z,0.00
2019-05-19T02:40:57.925Z,0.00
2019-05-19T02:41:57.893Z,0.00
2019-05-19T02:42:57.892Z,0.00
2019-05-19T02:43:57.865Z,0.00
2019-05-19T02:44:57.869Z,0.00
2019-05-19T02:45:57.886Z,0.00
2019-05-19T02:46:57.845Z,0.00
2019-05-19T02:47:57.842Z,0.00
2019-05-19T02:48:57.806Z,0.00
2019-05-19T02:49:57.811Z,0.00
2019-05-19T02:50:57.825Z,0.00
2019-05-19T02:51:57.807Z,4.00
2019-05-19T02:52:57.764Z,4.00
2019-05-19T02:53:57.760Z,0.00
2019-05-19T02:54:57.756Z,0.00
2019-05-19T02:55:57.756Z,4.00
2019-05-19T02:56:57.717Z,4.00
2019-05-19T02:57:57.726Z,4.00
2019-05-19T02:58:57.700Z,4.00
2019-05-19T02:59:57.725Z,4.00
2019-05-19T03:00:57.695Z,8.00
2019-05-19T03:01:57.668Z,4.00
2019-05-19T03:02:57.667Z,8.00
2019-05-19T03:03:57.658Z,8.00
2019-05-19T03:04:57.629Z,8.00
2019-05-19T03:05:57.651Z,12.00
2019-05-19T03:06:57.615Z,12.00
2019-05-19T03:07:57.606Z,16.00
2019-05-19T03:08:57.596Z,16.00
2019-05-19T03:09:57.573Z,20.00
2019-05-19T03:10:57.590Z,20.00
2019-05-19T03:11:57.556Z,28.00
2019-05-19T03:12:57.547Z,32.00
2019-05-19T03:13:57.547Z,36.00
2019-05-19T03:14:57.527Z,40.00
2019-05-19T03:15:57.524Z,44.00
2019-05-19T03:16:57.513Z,48.00
2019-05-19T03:17:57.491Z,56.00
2019-05-19T03:18:57.483Z,60.00
2019-05-19T03:19:57.521Z,68.00
2019-05-19T03:21:10.574Z,76.00
2019-05-19T03:21:57.489Z,80.00
2019-05-19T03:22:57.460Z,88.00
2019-05-19T03:23:57.438Z,96.00
2019-05-19T03:24:57.405Z,104.00
2019-05-19T03:25:57.432Z,108.00
2019-05-19T03:26:57.386Z,116.00
2019-05-19T03:27:57.479Z,124.00
2019-05-19T03:28:57.393Z,132.00
2019-05-19T03:29:58.208Z,140.00
2019-05-19T03:30:57.388Z,148.00
2019-05-19T03:31:57.744Z,160.00
2019-05-19T03:32:57.413Z,168.00
2019-05-19T03:33:58.248Z,180.00
2019-05-19T03:34:58.208Z,192.00
2019-05-19T03:35:57.430Z,204.00
2019-05-19T03:36:57.349Z,216.00
2019-05-19T03:37:57.412Z,228.00
2019-05-19T03:38:57.314Z,240.00
2019-05-19T03:39:57.262Z,256.00
2019-05-19T03:40:57.245Z,272.00
2019-05-19T03:41:57.268Z,288.00
2019-05-19T03:42:57.231Z,304.00
2019-05-19T03:43:57.230Z,324.00
2019-05-19T03:44:57.197Z,344.00
2019-05-19T03:45:57.186Z,364.00
2019-05-19T03:46:57.196Z,388.00
2019-05-19T03:47:57.161Z,404.00
2019-05-19T03:48:57.159Z,432.00
2019-05-19T03:49:57.134Z,456.00
2019-05-19T03:50:57.154Z,484.00
2019-05-19T03:51:57.707Z,512.00
2019-05-19T03:52:57.117Z,540.00
2019-05-19T03:53:57.106Z,572.00
2019-05-19T03:54:57.098Z,608.00
2019-05-19T03:55:57.084Z,636.00
2019-05-19T03:56:57.069Z,668.00
2019-05-19T03:57:57.065Z,704.00
2019-05-19T03:58:57.077Z,736.00
2019-05-19T03:59:57.031Z,776.00
2019-05-19T04:00:57.045Z,804.00
2019-05-19T04:01:57.751Z,840.00
2019-05-19T04:02:57.010Z,880.00
2019-05-19T04:03:56.993Z,916.00
2019-05-19T04:04:56.985Z,956.00
2019-05-19T04:05:56.984Z,996.00
2019-05-19T04:06:56.996Z,1036.00
2019-05-19T04:07:56.953Z,1076.00
2019-05-19T04:08:56.959Z,1124.00
2019-05-19T04:09:56.929Z,1168.00
2019-05-19T04:10:56.906Z,1216.00
2019-05-19T04:11:56.934Z,1268.00
2019-05-19T04:12:56.885Z,1324.00
2019-05-19T04:13:56.979Z,1372.00
2019-05-19T04:14:56.871Z,1428.00
2019-05-19T04:15:56.871Z,1484.00
2019-05-19T04:16:56.876Z,1544.00
2019-05-19T04:17:56.844Z,1600.00
2019-05-19T04:18:56.835Z,1656.00
2019-05-19T04:19:56.809Z,1712.00
2019-05-19T04:20:56.801Z,1760.00
2019-05-19T04:21:56.825Z,1812.00
2019-05-19T04:22:56.788Z,1864.00
2019-05-19T04:23:56.821Z,1920.00
2019-05-19T04:24:56.743Z,1968.00
2019-05-19T04:25:56.749Z,2020.00
2019-05-19T04:26:56.764Z,2072.00
2019-05-19T04:27:56.722Z,2120.00
2019-05-19T04:28:56.719Z,2172.00
2019-05-19T04:29:56.717Z,2224.00
2019-05-19T04:30:56.688Z,2268.00
2019-05-19T04:31:56.716Z,2312.00
2019-05-19T04:32:56.656Z,2356.00
2019-05-19T04:33:56.673Z,2392.00
2019-05-19T04:35:57.550Z,2476.00
2019-05-19T04:36:56.640Z,2520.00
2019-05-19T04:39:05.897Z,2620.00
2019-05-19T04:40:06.786Z,2676.00
2019-05-19T04:41:06.779Z,2736.00
2019-05-19T04:42:06.805Z,2784.00
2019-05-19T04:43:06.787Z,2892.00
2019-05-19T04:44:06.737Z,2980.00
2019-05-19T04:45:06.735Z,3060.00
2019-05-19T04:46:06.730Z,3256.00
2019-05-19T04:47:06.764Z,3372.00
2019-05-19T04:48:09.358Z,3476.00
2019-05-19T04:49:06.693Z,3372.00
2019-05-19T04:50:06.713Z,3436.00
2019-05-19T04:51:06.665Z,3624.00
2019-05-19T04:52:07.507Z,3784.00
2019-05-19T04:53:06.643Z,4132.00
2019-05-19T04:54:06.623Z,4412.00
2019-05-19T04:55:06.618Z,4340.00
2019-05-19T04:56:06.608Z,4444.00
2019-05-19T04:57:06.620Z,5140.00
2019-05-19T04:58:06.592Z,5880.00
2019-05-19T04:59:06.574Z,5792.00
2019-05-19T05:00:06.578Z,5208.00
2019-05-19T05:01:06.578Z,4940.00
2019-05-19T05:02:06.571Z,5128.00
2019-05-19T05:03:06.540Z,4936.00
2019-05-19T05:04:06.564Z,5136.00
2019-05-19T05:05:06.530Z,5472.00
2019-05-19T05:06:06.506Z,5732.00
2019-05-19T05:07:06.544Z,6016.00
2019-05-19T05:08:06.484Z,5948.00
2019-05-19T05:09:06.471Z,5572.00
2019-05-19T05:10:06.486Z,5532.00
2019-05-19T05:11:06.435Z,5772.00
2019-05-19T05:12:06.434Z,6068.00
2019-05-19T05:13:06.413Z,6236.00
2019-05-19T05:14:06.409Z,6388.00
2019-05-19T05:15:06.408Z,6236.00
2019-05-19T05:16:06.385Z,5360.00
2019-05-19T05:17:06.412Z,5068.00
2019-05-19T05:18:06.362Z,5092.00
2019-05-19T05:19:06.373Z,5260.00
2019-05-19T05:20:06.345Z,5356.00
2019-05-19T05:21:06.331Z,5496.00
2019-05-19T05:22:19.936Z,5932.00
2019-05-19T05:23:06.304Z,6336.00
2019-05-19T05:24:06.294Z,5820.00
2019-05-19T05:25:06.293Z,5368.00
2019-05-19T05:26:06.268Z,6116.00
2019-05-19T05:27:06.273Z,6228.00
2019-05-19T05:28:06.261Z,5904.00
2019-05-19T05:29:06.265Z,5972.00
2019-05-19T05:30:06.243Z,6104.00
2019-05-19T05:31:06.215Z,6316.00
2019-05-19T05:32:06.221Z,6896.00
2019-05-19T05:33:06.197Z,7212.00
2019-05-19T05:34:06.180Z,7804.00
2019-05-19T05:35:06.182Z,7652.00
2019-05-19T05:36:06.219Z,7864.00
2019-05-19T05:37:06.212Z,8340.00
2019-05-19T05:38:06.150Z,8332.00
2019-05-19T05:39:06.154Z,7896.00
2019-05-19T05:40:06.153Z,8268.00
2019-05-19T05:41:06.101Z,8308.00
2019-05-19T05:42:06.142Z,7980.00
2019-05-19T05:43:06.088Z,7440.00
2019-05-19T05:44:06.105Z,7676.00
2019-05-19T05:45:06.112Z,8048.00
2019-05-19T05:46:06.092Z,8432.00
2019-05-19T05:47:06.077Z,8480.00
2019-05-19T05:48:06.068Z,8328.00
2019-05-19T05:49:06.578Z,8348.00
2019-05-19T05:50:06.029Z,8548.00
2019-05-19T05:51:06.001Z,8760.00
2019-05-19T05:52:06.028Z,9076.00
2019-05-19T05:53:05.994Z,9304.00
2019-05-19T05:54:05.966Z,9620.00
2019-05-19T05:55:05.969Z,9864.00
2019-05-19T05:56:05.959Z,10148.00
2019-05-19T05:57:05.983Z,10160.00
2019-05-19T05:58:05.979Z,10292.00
2019-05-19T05:59:05.959Z,10440.00
2019-05-19T06:00:05.930Z,10576.00
2019-05-19T06:01:05.886Z,10640.00
2019-05-19T06:02:05.888Z,10712.00
2019-05-19T06:03:05.913Z,10720.00
2019-05-19T06:04:05.877Z,10756.00
2019-05-19T06:05:05.850Z,10912.00
2019-05-19T06:06:05.836Z,10884.00
2019-05-19T06:07:05.845Z,10632.00
2019-05-19T06:08:05.852Z,10820.00
2019-05-19T06:09:05.802Z,10928.00
2019-05-19T06:10:05.810Z,10824.00
2019-05-19T06:11:05.766Z,10912.00
2019-05-19T06:12:05.769Z,10864.00
2019-05-19T06:13:05.781Z,10152.00
2019-05-19T06:14:05.794Z,10232.00
2019-05-19T06:15:05.724Z,10300.00
2019-05-19T06:16:05.712Z,10228.00
2019-05-19T06:17:05.723Z,10276.00
2019-05-19T06:18:05.788Z,10400.00
2019-05-19T06:19:05.758Z,10544.00
2019-05-19T06:20:05.813Z,10348.00
2019-05-19T06:21:05.667Z,10104.00
2019-05-19T06:22:05.654Z,9236.00
2019-05-19T06:23:05.687Z,9708.00
2019-05-19T06:24:05.635Z,9696.00
2019-05-19T06:25:05.657Z,9908.00
2019-05-19T06:26:05.612Z,9744.00
2019-05-19T06:27:05.617Z,9752.00
2019-05-19T06:28:05.633Z,9896.00
2019-05-19T06:29:05.575Z,10480.00
2019-05-19T06:30:08.483Z,10396.00
2019-05-19T06:31:05.563Z,10804.00
2019-05-19T06:32:05.542Z,11144.00
2019-05-19T06:33:05.568Z,11796.00
2019-05-19T06:34:05.514Z,11912.00
2019-05-19T06:35:06.083Z,11204.00
2019-05-19T06:36:05.496Z,10960.00
2019-05-19T06:37:05.485Z,11128.00
2019-05-19T06:38:05.498Z,11720.00
2019-05-19T06:40:14.167Z,12396.00
2019-05-19T06:41:15.188Z,12076.00
2019-05-19T06:42:15.163Z,11720.00
2019-05-19T06:43:15.165Z,11544.00
2019-05-19T06:44:15.136Z,10964.00
2019-05-19T06:45:15.119Z,11320.00
2019-05-19T06:46:15.132Z,11320.00
2019-05-19T06:47:15.131Z,11056.00
2019-05-19T06:48:15.109Z,10632.00
2019-05-19T06:49:15.104Z,10528.00
2019-05-19T06:50:15.100Z,10508.00
2019-05-19T06:51:15.062Z,10556.00
2019-05-19T06:52:15.065Z,10700.00
2019-05-19T06:53:15.174Z,10864.00
2019-05-19T06:54:15.032Z,11032.00
2019-05-19T06:55:15.050Z,11584.00
2019-05-19T06:56:15.013Z,11704.00
2019-05-19T06:57:14.997Z,11708.00
2019-05-19T06:58:15.022Z,12244.00
2019-05-19T06:59:15.031Z,12696.00
2019-05-19T07:00:14.974Z,13220.00
2019-05-19T07:01:14.945Z,13700.00
2019-05-19T07:02:14.941Z,14080.00
2019-05-19T07:03:14.954Z,14472.00
2019-05-19T07:04:14.910Z,14808.00
2019-05-19T07:05:14.899Z,15564.00
2019-05-19T07:06:14.892Z,16416.00
2019-05-19T07:07:14.889Z,17120.00
2019-05-19T07:08:14.887Z,17440.00
2019-05-19T07:09:14.877Z,17440.00
2019-05-19T07:10:14.861Z,17472.00
2019-05-19T07:11:14.840Z,17248.00
2019-05-19T07:12:14.836Z,17152.00
2019-05-19T07:13:14.832Z,16960.00
2019-05-19T07:14:14.812Z,16736.00
2019-05-19T07:15:14.854Z,15480.00
2019-05-19T07:16:14.794Z,14392.00
2019-05-19T07:17:14.774Z,15292.00
2019-05-19T07:18:14.797Z,14864.00
2019-05-19T07:19:14.761Z,16416.00
2019-05-19T07:20:14.767Z,15492.00
2019-05-19T07:21:14.729Z,15464.00
2019-05-19T07:22:14.721Z,15096.00
2019-05-19T07:23:27.367Z,13232.00
2019-05-19T07:24:14.730Z,15096.00
2019-05-19T07:25:14.678Z,15760.00
2019-05-19T07:26:14.674Z,16416.00
2019-05-19T07:27:14.660Z,16384.00
2019-05-19T07:28:14.646Z,16640.00
2019-05-19T07:29:14.654Z,16640.00
2019-05-19T07:30:14.625Z,16640.00
2019-05-19T07:31:14.624Z,16800.00
2019-05-19T07:32:14.619Z,17056.00
2019-05-19T07:33:14.603Z,17312.00
2019-05-19T07:34:14.610Z,17440.00
2019-05-19T07:35:14.570Z,17184.00
2019-05-19T07:36:14.583Z,17280.00
2019-05-19T07:37:14.564Z,17088.00
2019-05-19T07:38:14.548Z,16896.00
2019-05-19T07:39:14.567Z,16960.00
2019-05-19T07:40:14.524Z,16960.00
2019-05-19T07:41:14.514Z,16416.00
2019-05-19T07:42:14.507Z,15488.00
2019-05-19T07:43:14.530Z,15724.00
2019-05-19T07:44:14.503Z,16224.00
2019-05-19T07:45:14.472Z,16076.00
2019-05-19T07:46:14.466Z,16736.00
2019-05-19T07:47:14.447Z,16928.00
2019-05-19T07:48:14.442Z,16396.00
2019-05-19T07:49:14.444Z,18016.00
2019-05-19T07:50:14.446Z,18336.00
2019-05-19T07:51:14.401Z,18784.00
2019-05-19T07:52:14.400Z,18912.00
2019-05-19T07:53:14.421Z,18976.00
2019-05-19T07:54:14.400Z,18816.00
2019-05-19T07:55:14.364Z,18720.00
2019-05-19T07:56:14.360Z,18592.00
2019-05-19T07:57:14.375Z,18112.00
2019-05-19T07:58:14.339Z,18336.00
2019-05-19T07:59:14.328Z,18464.00
2019-05-19T08:00:14.325Z,18592.00
2019-05-19T08:01:14.323Z,18080.00
2019-05-19T08:02:14.299Z,15872.00
2019-05-19T08:03:14.286Z,15808.00
2019-05-19T08:04:14.311Z,15944.00
2019-05-19T08:05:14.251Z,16136.00
2019-05-19T08:06:14.239Z,16296.00
2019-05-19T08:07:14.253Z,17216.00
2019-05-19T08:08:14.242Z,17760.00
2019-05-19T08:09:14.220Z,18304.00
2019-05-19T08:10:14.235Z,18816.00
2019-05-19T08:11:14.231Z,19104.00
2019-05-19T08:12:14.180Z,19488.00
2019-05-19T08:13:14.176Z,20288.00
2019-05-19T08:14:14.152Z,20384.00
2019-05-19T08:15:14.160Z,20416.00
2019-05-19T08:16:14.142Z,20512.00
2019-05-19T08:17:14.140Z,20384.00
2019-05-19T08:18:14.124Z,20352.00
2019-05-19T08:19:14.120Z,20352.00
2019-05-19T08:20:14.136Z,20320.00
2019-05-19T08:21:14.088Z,20384.00
2019-05-19T08:22:14.934Z,20512.00
2019-05-19T08:23:14.072Z,20608.00
2019-05-19T08:24:14.060Z,20640.00
2019-05-19T08:25:14.048Z,20576.00
2019-05-19T08:26:14.067Z,20480.00
2019-05-19T08:27:14.047Z,20608.00
2019-05-19T08:28:14.054Z,20640.00
2019-05-19T08:29:14.043Z,20640.00
2019-05-19T08:30:14.017Z,20704.00
2019-05-19T08:31:14.009Z,20608.00
2019-05-19T08:32:13.979Z,20736.00
2019-05-19T08:33:13.975Z,20832.00
2019-05-19T08:34:13.939Z,20800.00
2019-05-19T08:35:13.953Z,20864.00
2019-05-19T08:36:13.930Z,20768.00
2019-05-19T08:37:13.914Z,20896.00
2019-05-19T08:38:13.895Z,20832.00
2019-05-19T08:39:13.887Z,21088.00
2019-05-19T08:41:23.081Z,21120.00
2019-05-19T08:42:24.056Z,21280.00
2019-05-19T08:43:24.036Z,21088.00
2019-05-19T08:44:24.028Z,21024.00
2019-05-19T08:45:24.030Z,20960.00
2019-05-19T08:46:24.013Z,21024.00
2019-05-19T08:47:23.994Z,21216.00
2019-05-19T08:48:23.995Z,21248.00
2019-05-19T08:49:24.010Z,21472.00
2019-05-19T08:50:23.978Z,21472.00
2019-05-19T08:51:23.949Z,21536.00
2019-05-19T08:52:23.954Z,21760.00
2019-05-19T08:53:23.964Z,21696.00
2019-05-19T08:54:23.923Z,21920.00
2019-05-19T08:55:23.921Z,21760.00
2019-05-19T08:56:23.930Z,21760.00
2019-05-19T08:57:23.877Z,21504.00
2019-05-19T08:58:23.881Z,21504.00
2019-05-19T08:59:23.884Z,21760.00
2019-05-19T09:00:23.875Z,22016.00
2019-05-19T09:01:23.843Z,22080.00
2019-05-19T09:02:23.827Z,22528.00
2019-05-19T09:03:23.821Z,22400.00
2019-05-19T09:04:23.808Z,22400.00
2019-05-19T09:05:23.821Z,22432.00
2019-05-19T09:06:23.785Z,22400.00
2019-05-19T09:07:23.772Z,22720.00
2019-05-19T09:08:23.830Z,22944.00
2019-05-19T09:09:23.757Z,22976.00
2019-05-19T09:10:23.771Z,22784.00
2019-05-19T09:11:23.745Z,22624.00
2019-05-19T09:12:23.723Z,22752.00
2019-05-19T09:13:23.702Z,23104.00
2019-05-19T09:14:23.721Z,23328.00
2019-05-19T09:15:23.703Z,14424.00
2019-05-19T09:16:23.689Z,17032.00
2019-05-19T09:17:23.682Z,23552.00
2019-05-19T09:18:23.657Z,23552.00
2019-05-19T09:19:23.656Z,23680.00
2019-05-19T09:20:23.634Z,24064.00
2019-05-19T09:21:23.664Z,23904.00
2019-05-19T09:22:23.620Z,24320.00
2019-05-19T09:23:23.597Z,24128.00
2019-05-19T09:24:30.437Z,23776.00
2019-05-19T09:25:23.581Z,23776.00
2019-05-19T09:26:23.599Z,23712.00
2019-05-19T09:27:23.581Z,23488.00
2019-05-19T09:28:23.544Z,23744.00
2019-05-19T09:29:23.547Z,24256.00
2019-05-19T09:30:23.580Z,24352.00
2019-05-19T09:31:23.543Z,24512.00
2019-05-19T09:32:23.506Z,24384.00
2019-05-19T09:33:23.486Z,24192.00
2019-05-19T09:34:23.502Z,23712.00
2019-05-19T09:35:23.463Z,23680.00
2019-05-19T09:36:23.506Z,23776.00
2019-05-19T09:37:23.469Z,23680.00
2019-05-19T09:38:23.451Z,23840.00
2019-05-19T09:39:23.440Z,23968.00
2019-05-19T09:40:26.522Z,23776.00
2019-05-19T09:41:23.443Z,23136.00
2019-05-19T09:42:23.400Z,18144.00
2019-05-19T09:43:23.403Z,13280.00
2019-05-19T09:44:23.382Z,12200.00
2019-05-19T09:45:23.355Z,11632.00
2019-05-19T09:46:23.472Z,11728.00
2019-05-19T09:47:23.346Z,12516.00
2019-05-19T09:48:23.354Z,16460.00
2019-05-19T09:49:23.314Z,23456.00
2019-05-19T09:50:23.321Z,23936.00
2019-05-19T09:51:23.362Z,23936.00
2019-05-19T09:52:23.283Z,22432.00
2019-05-19T09:53:23.290Z,18016.00
2019-05-19T09:54:23.267Z,13156.00
2019-05-19T09:55:23.387Z,13380.00
2019-05-19T09:56:23.268Z,13864.00
2019-05-19T09:57:23.235Z,17888.00
2019-05-19T09:58:23.255Z,18432.00
2019-05-19T09:59:23.223Z,14132.00
2019-05-19T10:00:23.203Z,14080.00
2019-05-19T10:01:23.218Z,14608.00
2019-05-19T10:02:23.206Z,24896.00
2019-05-19T10:03:23.160Z,25088.00
2019-05-19T10:04:23.171Z,23808.00
2019-05-19T10:05:23.148Z,15336.00
2019-05-19T10:06:23.139Z,23744.00
2019-05-19T10:07:23.142Z,23680.00
2019-05-19T10:08:23.111Z,13312.00
2019-05-19T10:09:23.144Z,13024.00
2019-05-19T10:10:23.113Z,14244.00
2019-05-19T10:11:23.152Z,12308.00
2019-05-19T10:12:23.086Z,12452.00
2019-05-19T10:13:23.063Z,12556.00
2019-05-19T10:14:23.056Z,13016.00
2019-05-19T10:15:23.048Z,14024.00
2019-05-19T10:16:23.037Z,24736.00
2019-05-19T10:17:23.042Z,25184.00
2019-05-19T10:18:23.007Z,21792.00
2019-05-19T10:19:22.992Z,25280.00
2019-05-19T10:20:22.985Z,21056.00
2019-05-19T10:21:22.995Z,25280.00
2019-05-19T10:22:22.993Z,25376.00
2019-05-19T10:23:22.961Z,25120.00
2019-05-19T10:24:22.939Z,25248.00
2019-05-19T10:25:23.451Z,24640.00
2019-05-19T10:26:22.918Z,24384.00
2019-05-19T10:27:22.927Z,24736.00
2019-05-19T10:28:22.904Z,24352.00
2019-05-19T10:29:22.880Z,23840.00
2019-05-19T10:30:22.871Z,23552.00
2019-05-19T10:31:22.866Z,23168.00
2019-05-19T10:32:22.918Z,22848.00
2019-05-19T10:33:22.845Z,22688.00
2019-05-19T10:34:22.856Z,22656.00
2019-05-19T10:35:22.812Z,21856.00
2019-05-19T10:36:22.819Z,22848.00
2019-05-19T10:37:22.839Z,22848.00
2019-05-19T10:38:22.776Z,23328.00
2019-05-19T10:39:22.778Z,23424.00
2019-05-19T10:40:22.763Z,23840.00
2019-05-19T10:42:31.953Z,23968.00
2019-05-19T10:43:32.933Z,24224.00
2019-05-19T10:44:32.931Z,23968.00
2019-05-19T10:45:32.911Z,23840.00
2019-05-19T10:46:32.902Z,23872.00
2019-05-19T10:47:32.911Z,23648.00
2019-05-19T10:48:32.872Z,18368.00
2019-05-19T10:49:32.868Z,19456.00
2019-05-19T10:50:32.852Z,14064.00
2019-05-19T10:51:32.853Z,23008.00
2019-05-19T10:52:32.853Z,12496.00
2019-05-19T10:53:32.822Z,12280.00
2019-05-19T10:54:32.815Z,12172.00
2019-05-19T10:55:36.437Z,12128.00
2019-05-19T10:56:32.806Z,12184.00
2019-05-19T10:57:32.808Z,12292.00
2019-05-19T10:58:32.769Z,12712.00
2019-05-19T10:59:32.768Z,23296.00
2019-05-19T11:00:32.745Z,23040.00
2019-05-19T11:01:32.738Z,23552.00
2019-05-19T11:02:32.744Z,23232.00
2019-05-19T11:03:32.724Z,22912.00
2019-05-19T11:04:32.708Z,22688.00
2019-05-19T11:05:32.697Z,22752.00
2019-05-19T11:06:32.697Z,22848.00
2019-05-19T11:07:32.690Z,22976.00
2019-05-19T11:08:32.673Z,21600.00
2019-05-19T11:09:32.656Z,16656.00
2019-05-19T11:10:32.632Z,12348.00
2019-05-19T11:11:32.630Z,12180.00
2019-05-19T11:12:32.640Z,12372.00
2019-05-19T11:13:32.711Z,12328.00
2019-05-19T11:14:32.599Z,12396.00
2019-05-19T11:15:32.595Z,15448.00
2019-05-19T11:16:32.587Z,22496.00
2019-05-19T11:17:32.565Z,18464.00
2019-05-19T11:18:32.574Z,12180.00
2019-05-19T11:19:32.542Z,11496.00
2019-05-19T11:20:32.530Z,11408.00
2019-05-19T11:21:32.527Z,18080.00
2019-05-19T11:22:32.506Z,22528.00
2019-05-19T11:23:32.511Z,22592.00
2019-05-19T11:24:32.485Z,22432.00
2019-05-19T11:25:34.310Z,22752.00
2019-05-19T11:26:32.473Z,22880.00
2019-05-19T11:27:32.461Z,22784.00
2019-05-19T11:28:32.466Z,22976.00
2019-05-19T11:29:32.436Z,23168.00
2019-05-19T11:30:32.422Z,23072.00
2019-05-19T11:31:32.429Z,22848.00
2019-05-19T11:32:32.427Z,22976.00
2019-05-19T11:33:32.745Z,22752.00
2019-05-19T11:34:32.400Z,22560.00
2019-05-19T11:35:32.372Z,22112.00
2019-05-19T11:36:32.367Z,22240.00
2019-05-19T11:37:32.350Z,22208.00
2019-05-19T11:38:32.372Z,21984.00
2019-05-19T11:39:32.329Z,22016.00
2019-05-19T11:40:32.317Z,22112.00
2019-05-19T11:41:32.317Z,22464.00
2019-05-19T11:42:32.316Z,22336.00
2019-05-19T11:43:32.308Z,22560.00
2019-05-19T11:44:32.286Z,22656.00
2019-05-19T11:45:32.260Z,22528.00
2019-05-19T11:46:32.263Z,21920.00
2019-05-19T11:47:32.247Z,18976.00
2019-05-19T11:48:32.266Z,22048.00
2019-05-19T11:49:32.250Z,22304.00
2019-05-19T11:50:32.212Z,16608.00
2019-05-19T11:51:32.209Z,21472.00
2019-05-19T11:52:32.191Z,21024.00
2019-05-19T11:53:32.216Z,19104.00
2019-05-19T11:54:32.165Z,19584.00
2019-05-19T11:55:32.184Z,10168.00
2019-05-19T11:56:32.160Z,10232.00
2019-05-19T11:57:32.150Z,10332.00
2019-05-19T11:58:32.147Z,15584.00
2019-05-19T11:59:32.149Z,17984.00
2019-05-19T12:00:32.148Z,22176.00
2019-05-19T12:01:32.111Z,21696.00
2019-05-19T12:02:32.108Z,15592.00
2019-05-19T12:03:32.093Z,21632.00
2019-05-19T12:04:32.111Z,22464.00
2019-05-19T12:05:32.099Z,22432.00
2019-05-19T12:06:39.409Z,22208.00
2019-05-19T12:07:32.051Z,22304.00
2019-05-19T12:08:32.035Z,22336.00
2019-05-19T12:09:32.049Z,22304.00
2019-05-19T12:10:32.019Z,22176.00
2019-05-19T12:11:32.012Z,22464.00
2019-05-19T12:12:31.990Z,22560.00
2019-05-19T12:13:34.823Z,22720.00
2019-05-19T12:14:31.992Z,22400.00
2019-05-19T12:15:31.971Z,22112.00
2019-05-19T12:16:31.957Z,21504.00
2019-05-19T12:17:31.930Z,21376.00
2019-05-19T12:18:31.940Z,21696.00
2019-05-19T12:19:31.932Z,21536.00
2019-05-19T12:20:31.899Z,21536.00
2019-05-19T12:21:31.893Z,21088.00
2019-05-19T12:22:31.881Z,21056.00
2019-05-19T12:23:31.866Z,21184.00
2019-05-19T12:24:31.875Z,21632.00
2019-05-19T12:25:31.846Z,21440.00
2019-05-19T12:26:34.709Z,21216.00
2019-05-19T12:27:31.855Z,20704.00
2019-05-19T12:28:31.859Z,20960.00